Time;durP1;ratioP1;P1;durP2;ratioP2;P2;SDS_P1;SDS_P2;PMS_P1;PMS_P2;Temp;Humidity;BMP_temperature;BMP_pressure;BME280_temperature;BME280_humidity;BME280_pressure;Samples;Min_cycle;Max_cycle;Signal;HPM_P1;HPM_P2
2022/01/26 00:07:50;;;;;;;;;;;1.70;99.90;;;;;;5085749;28;20070;-72
2022/01/26 00:10:16;;;;;;;36.28;18.00;;;1.80;99.90;;;;;;5091110;28;20357;-72
2022/01/26 00:12:42;;;;;;;33.53;19.27;;;1.70;99.90;;;;;;5097567;28;20456;-72
2022/01/26 00:15:08;;;;;;;40.45;19.38;;;1.60;99.90;;;;;;5091982;28;20024;-72
2022/01/26 00:17:34;;;;;;;31.98;19.08;;;1.70;99.90;;;;;;5088091;28;20029;-72
2022/01/26 00:20:22;;;;;;;31.67;18.38;;;1.70;99.90;;;;;;5085660;28;20028;-72
2022/01/26 00:34:17;;;;;;;33.28;16.70;;;1.70;99.90;;;;;;5084339;28;20407;-72
2022/01/26 00:38:42;;;;;;;42.10;19.85;;;1.50;99.90;;;;;;5087822;28;20115;-72
2022/01/26 00:41:14;;;;;;;25.45;16.48;;;1.50;99.90;;;;;;5077259;28;20174;-72
2022/01/26 00:43:45;;;;;;;33.92;17.83;;;1.70;99.90;;;;;;5088603;28;20099;-72
2022/01/26 00:46:11;;;;;;;30.83;16.75;;;1.80;99.90;;;;;;5081171;28;20068;-73
2022/01/26 00:48:38;;;;;;;29.55;16.70;;;1.60;99.90;;;;;;5080591;28;20031;-72
2022/01/26 00:51:06;;;;;;;35.10;18.10;;;1.50;99.90;;;;;;5087545;28;20038;-72
2022/01/26 00:53:37;;;;;;;33.78;18.05;;;1.50;99.90;;;;;;5082132;28;20030;-72
2022/01/26 00:56:05;;;;;;;34.55;18.15;;;1.60;99.90;;;;;;5084180;28;20401;-73
2022/01/26 00:58:31;;;;;;;34.47;18.30;;;1.60;99.90;;;;;;5086865;28;20028;-72
2022/01/26 01:00:59;;;;;;;33.75;18.67;;;1.50;99.90;;;;;;5087900;28;20044;-72
2022/01/26 01:03:25;;;;;;;30.98;16.40;;;1.60;99.90;;;;;;5088057;28;20359;-72
2022/01/26 01:08:22;;;;;;;30.33;17.25;;;1.60;99.90;;;;;;5089164;28;20514;-72
2022/01/26 01:10:50;;;;;;;26.42;16.40;;;1.60;99.90;;;;;;5077696;28;20494;-72
2022/01/26 01:13:20;;;;;;;26.50;14.15;;;1.40;99.90;;;;;;5085947;28;20047;-72
2022/01/26 01:15:48;;;;;;;32.22;16.98;;;1.40;99.90;;;;;;5085755;28;20032;-72
2022/01/26 01:29:11;;;;;;;28.90;16.38;;;1.20;99.90;;;;;;5066596;28;20078;-72
2022/01/26 01:31:53;;;;;;;31.20;16.23;;;1.20;99.90;;;;;;5095696;28;20537;-72
2022/01/26 01:34:34;;;;;;;34.03;17.80;;;1.20;99.90;;;;;;5094706;28;20043;-73
2022/01/26 01:37:06;;;;;;;31.73;17.58;;;1.20;99.90;;;;;;5085206;28;20024;-73
2022/01/26 01:39:33;;;;;;;31.45;16.58;;;1.20;99.90;;;;;;5085375;28;20040;-72
2022/01/26 01:41:59;;;;;;;33.92;17.83;;;1.40;99.90;;;;;;5085539;28;20028;-73
2022/01/26 01:44:25;;;;;;;29.42;14.95;;;1.30;99.90;;;;;;5089801;28;20035;-72
2022/01/26 01:46:52;;;;;;;28.85;16.52;;;1.30;99.90;;;;;;5087176;28;20024;-72
2022/01/26 01:49:18;;;;;;;30.67;16.77;;;1.20;99.90;;;;;;5081396;28;20028;-72
2022/01/26 01:51:51;;;;;;;28.10;16.40;;;1.20;99.90;;;;;;5093688;28;20089;-72
2022/01/26 01:54:18;;;;;;;29.25;15.15;;;1.10;99.90;;;;;;5080222;28;20032;-72
2022/01/26 01:56:49;;;;;;;29.90;16.38;;;1.20;99.90;;;;;;5088887;28;20375;-72
2022/01/26 01:59:15;;;;;;;27.77;16.45;;;1.00;99.90;;;;;;5090876;28;20390;-72
2022/01/26 02:01:40;;;;;;;27.13;15.13;;;1.20;99.90;;;;;;5094162;28;20030;-72
2022/01/26 02:04:07;;;;;;;31.98;16.08;;;1.10;99.90;;;;;;5089962;28;20085;-72
2022/01/26 02:06:34;;;;;;;30.25;16.42;;;1.10;99.90;;;;;;5090310;28;20028;-72
2022/01/26 02:09:00;;;;;;;28.13;15.32;;;1.20;99.90;;;;;;5089122;28;20071;-72
2022/01/26 02:11:25;;;;;;;30.27;15.10;;;1.10;99.90;;;;;;5088441;28;20495;-72
2022/01/26 02:16:27;;;;;;;39.70;17.10;;;1.20;99.90;;;;;;5086722;28;20038;-72
2022/01/26 02:19:18;;;;;;;30.88;15.68;;;1.20;99.90;;;;;;5086198;28;20031;-73
2022/01/26 03:02:27;;;;;;;22.92;13.25;;;0.70;99.90;;;;;;5087374;28;20036;-73
2022/01/26 03:04:56;;;;;;;27.98;15.82;;;0.80;99.90;;;;;;5082408;28;20028;-72
2022/01/26 03:10:00;;;;;;;28.40;14.82;;;0.80;99.90;;;;;;5088851;28;20041;-72
2022/01/26 03:12:38;;;;;;;26.58;14.70;;;0.70;99.90;;;;;;5090124;28;20036;-73
2022/01/26 03:15:13;;;;;;;28.85;16.27;;;0.60;99.90;;;;;;5080982;28;20024;-72
2022/01/26 03:20:23;;;;;;;28.38;16.10;;;0.30;99.90;;;;;;5087061;28;20091;-73
2022/01/26 03:28:25;;;;;;;26.50;14.25;;;0.60;99.90;;;;;;5086964;28;20088;-72
2022/01/26 03:31:54;;;;;;;28.40;14.63;;;0.70;99.90;;;;;;5088032;28;20052;-72
2022/01/26 03:36:14;;;;;;;28.77;16.42;;;0.20;99.90;;;;;;5078667;28;20028;-72
2022/01/26 03:38:44;;;;;;;30.23;15.10;;;0.10;99.90;;;;;;5086334;28;20067;-72
2022/01/26 03:41:33;;;;;;;27.38;15.32;;;0.00;99.90;;;;;;5090120;28;20040;-72
2022/01/26 03:43:59;;;;;;;29.13;14.65;;;0.00;99.90;;;;;;5080120;28;20548;-73
2022/01/26 03:46:25;;;;;;;30.25;16.65;;;-0.10;99.90;;;;;;5087060;28;20055;-72
2022/01/26 03:48:52;;;;;;;31.88;17.02;;;-0.10;99.90;;;;;;5081688;28;20028;-72
2022/01/26 03:51:18;;;;;;;26.92;14.68;;;-0.20;99.90;;;;;;5083169;28;20032;-72
2022/01/26 03:53:43;;;;;;;24.77;14.43;;;-0.10;99.90;;;;;;5084724;28;20028;-72
2022/01/26 03:56:09;;;;;;;23.80;13.55;;;-0.30;99.90;;;;;;5100963;28;20027;-72
2022/01/26 03:58:35;;;;;;;28.42;14.68;;;0.00;99.90;;;;;;5079531;28;20028;-73
2022/01/26 04:01:01;;;;;;;27.45;15.27;;;-0.10;99.90;;;;;;5104452;28;20069;-72
2022/01/26 04:03:26;;;;;;;28.13;15.70;;;0.00;99.90;;;;;;5078704;28;20031;-72
2022/01/26 04:05:52;;;;;;;26.38;14.68;;;-0.10;99.90;;;;;;5071156;28;20640;-72
2022/01/26 04:08:24;;;;;;;31.63;14.82;;;0.00;99.90;;;;;;5071702;28;20034;-72
2022/01/26 04:13:30;;;;;;;27.27;15.07;;;-0.20;99.90;;;;;;5079275;28;20469;-71
2022/01/26 04:15:56;;;;;;;26.75;13.70;;;-0.20;99.90;;;;;;5080636;28;20024;-71
2022/01/26 04:18:28;;;;;;;23.02;13.77;;;-0.20;99.90;;;;;;5066127;28;20612;-71
2022/01/26 04:20:57;;;;;;;23.95;13.27;;;-0.20;99.90;;;;;;5078677;28;20478;-72
2022/01/26 04:23:45;;;;;;;25.60;14.60;;;-0.30;99.90;;;;;;5089819;28;20027;-72
2022/01/26 04:26:12;;;;;;;23.55;13.43;;;-0.30;99.90;;;;;;5084279;28;20036;-71
2022/01/26 04:28:44;;;;;;;32.00;13.93;;;-0.40;99.90;;;;;;5081122;28;20115;-71
2022/01/26 04:31:10;;;;;;;20.70;12.73;;;-0.20;99.90;;;;;;5092313;28;20044;-72
2022/01/26 04:33:36;;;;;;;24.83;13.52;;;-0.20;99.90;;;;;;5081169;28;20020;-71
2022/01/26 04:36:06;;;;;;;25.55;13.77;;;-0.40;99.90;;;;;;5084365;28;20080;-71
2022/01/26 04:38:41;;;;;;;24.52;12.43;;;-0.40;99.90;;;;;;5070467;28;20024;-71
2022/01/26 04:43:56;;;;;;;22.77;12.13;;;-0.40;99.90;;;;;;5088317;28;20422;-71
2022/01/26 04:46:24;;;;;;;18.55;11.00;;;-0.20;99.90;;;;;;5084500;28;20032;-71
2022/01/26 04:48:50;;;;;;;18.67;10.27;;;-0.30;99.90;;;;;;5076477;28;20028;-72
2022/01/26 04:51:15;;;;;;;24.73;12.77;;;-0.50;99.90;;;;;;5076064;28;20024;-72
2022/01/26 04:53:41;;;;;;;24.70;12.98;;;-0.30;99.90;;;;;;5073874;28;20045;-71
2022/01/26 04:56:07;;;;;;;22.83;12.85;;;-0.40;99.90;;;;;;5067068;28;20102;-72
2022/01/26 04:58:32;;;;;;;23.20;12.25;;;-0.50;99.90;;;;;;5080634;28;20032;-72
2022/01/26 05:00:58;;;;;;;27.70;13.18;;;-0.50;99.90;;;;;;5079494;28;20589;-71
2022/01/26 05:03:24;;;;;;;26.40;14.38;;;-0.60;99.90;;;;;;5075766;28;20119;-71
2022/01/26 05:05:49;;;;;;;22.50;11.90;;;-0.50;99.90;;;;;;5080322;28;20029;-71
2022/01/26 05:08:15;;;;;;;23.77;11.70;;;-0.30;99.90;;;;;;5077484;28;20032;-71
2022/01/26 05:10:43;;;;;;;21.70;10.43;;;-0.30;99.90;;;;;;5080326;28;20077;-72
2022/01/26 05:13:14;;;;;;;23.20;11.20;;;-0.30;99.90;;;;;;5077479;28;20503;-71
2022/01/26 05:15:40;;;;;;;26.30;14.02;;;-0.20;99.90;;;;;;5089102;28;20028;-71
2022/01/26 05:18:06;;;;;;;22.85;12.50;;;-0.10;99.90;;;;;;5076174;28;20089;-71
2022/01/26 05:20:33;;;;;;;21.27;12.35;;;0.10;99.90;;;;;;5089491;28;20532;-71
2022/01/26 05:22:59;;;;;;;22.58;13.48;;;0.00;99.90;;;;;;5075946;28;20574;-71
2022/01/26 05:25:25;;;;;;;23.52;12.70;;;-0.10;99.90;;;;;;5082197;28;20024;-71
2022/01/26 05:27:51;;;;;;;21.00;11.90;;;-0.10;99.90;;;;;;5074529;28;20073;-72
2022/01/26 05:30:17;;;;;;;24.10;13.23;;;-0.10;99.90;;;;;;5075731;28;20028;-71
2022/01/26 05:32:42;;;;;;;22.48;13.07;;;-0.20;99.90;;;;;;5090627;28;20516;-71
2022/01/26 05:35:09;;;;;;;24.88;13.30;;;-0.40;99.90;;;;;;5085083;28;20512;-71
2022/01/26 05:37:34;;;;;;;20.75;12.15;;;-0.50;99.90;;;;;;5074183;28;20045;-72
2022/01/26 05:40:02;;;;;;;25.13;12.18;;;-0.50;99.90;;;;;;5084177;28;20048;-71
2022/01/26 05:42:28;;;;;;;22.30;12.32;;;-0.70;99.90;;;;;;5082399;28;20020;-72
2022/01/26 05:45:00;;;;;;;20.58;10.95;;;-0.70;99.90;;;;;;5082041;28;20059;-71
2022/01/26 05:47:25;;;;;;;24.63;13.15;;;-0.70;99.90;;;;;;5088564;28;20143;-72
2022/01/26 05:49:51;;;;;;;21.77;11.95;;;-0.50;99.90;;;;;;5084617;28;20431;-72
2022/01/26 05:52:17;;;;;;;21.05;12.52;;;-0.50;99.90;;;;;;5093552;28;20040;-71
2022/01/26 05:54:42;;;;;;;21.83;11.35;;;-0.40;99.90;;;;;;5082461;28;20036;-71
2022/01/26 05:57:08;;;;;;;20.08;10.63;;;-0.60;99.90;;;;;;5076306;28;20042;-71
2022/01/26 05:59:34;;;;;;;21.80;12.02;;;-0.60;99.90;;;;;;5074174;28;20616;-70
2022/01/26 06:02:00;;;;;;;24.33;12.45;;;-0.50;99.90;;;;;;5089521;28;20836;-71
2022/01/26 06:04:27;;;;;;;23.48;11.70;;;-0.50;99.90;;;;;;5072985;28;20576;-71
2022/01/26 06:06:53;;;;;;;23.33;11.50;;;-0.40;99.90;;;;;;5077178;28;20036;-72
2022/01/26 06:09:19;;;;;;;20.15;11.63;;;-0.40;99.90;;;;;;5074123;28;20074;-71
2022/01/26 06:11:45;;;;;;;24.92;12.35;;;-0.30;99.90;;;;;;5074357;28;20484;-72
2022/01/26 06:14:10;;;;;;;23.02;12.30;;;0.00;99.90;;;;;;5085015;28;20055;-71
2022/01/26 06:16:36;;;;;;;18.55;11.30;;;0.10;99.90;;;;;;5096293;28;20077;-71
2022/01/26 06:19:02;;;;;;;17.92;11.30;;;0.20;99.90;;;;;;5077925;28;20039;-71
2022/01/26 06:21:28;;;;;;;23.33;12.07;;;0.30;99.90;;;;;;5077390;28;20040;-72
2022/01/26 06:23:53;;;;;;;19.08;10.98;;;0.30;99.90;;;;;;5084041;28;20085;-71
2022/01/26 06:26:19;;;;;;;20.80;9.65;;;0.20;99.90;;;;;;5079135;28;20035;-71
2022/01/26 06:28:45;;;;;;;17.15;9.57;;;0.20;99.90;;;;;;5079639;28;20384;-71
2022/01/26 06:31:15;;;;;;;16.60;7.97;;;0.20;99.90;;;;;;5080384;28;20059;-71
2022/01/26 06:33:41;;;;;;;14.52;8.25;;;0.10;99.90;;;;;;5081626;28;20032;-71
2022/01/26 06:36:12;;;;;;;19.50;10.98;;;0.10;99.90;;;;;;5079197;28;20670;-72
2022/01/26 06:38:41;;;;;;;22.52;10.93;;;0.10;99.90;;;;;;5076530;28;20024;-71
2022/01/26 06:41:07;;;;;;;20.27;10.85;;;-0.10;99.90;;;;;;5072017;28;20031;-71
2022/01/26 06:43:33;;;;;;;17.95;10.45;;;-0.10;99.90;;;;;;5070089;28;20024;-71
2022/01/26 06:46:03;;;;;;;20.98;10.30;;;-0.10;99.90;;;;;;5078153;28;20053;-71
2022/01/26 06:49:02;;;;;;;17.95;10.13;;;-0.10;99.90;;;;;;5074847;28;20024;-70
2022/01/26 06:51:28;;;;;;;18.23;10.27;;;-0.20;99.90;;;;;;5084876;28;20677;-72
2022/01/26 06:53:54;;;;;;;19.10;9.50;;;-0.40;99.90;;;;;;5067352;28;20028;-73
2022/01/26 06:56:19;;;;;;;18.27;8.48;;;-0.40;99.90;;;;;;5078644;28;20028;-71
2022/01/26 06:58:45;;;;;;;14.32;9.02;;;-0.40;99.90;;;;;;5079218;28;20024;-72
2022/01/26 07:01:11;;;;;;;13.90;7.05;;;-0.40;99.90;;;;;;5077758;28;20044;-72
2022/01/26 07:03:36;;;;;;;14.77;6.72;;;-0.10;99.90;;;;;;5075868;28;20070;-73
2022/01/26 07:06:02;;;;;;;14.10;8.43;;;0.00;99.90;;;;;;5074142;28;20037;-71
2022/01/26 07:08:28;;;;;;;18.27;9.45;;;0.00;99.90;;;;;;5074111;28;20904;-69
2022/01/26 07:10:54;;;;;;;16.08;7.88;;;0.10;99.90;;;;;;5078261;28;20596;-72
2022/01/26 07:13:20;;;;;;;15.32;8.15;;;0.00;99.90;;;;;;5071787;28;20631;-71
2022/01/26 07:23:40;;;;;;;15.27;8.10;;;-0.20;99.90;;;;;;5080153;28;20036;-71
2022/01/26 07:26:06;;;;;;;15.77;8.95;;;0.00;99.90;;;;;;5074351;28;20035;-70
2022/01/26 07:28:37;;;;;;;18.48;10.00;;;-0.10;99.90;;;;;;5072300;28;20060;-71
2022/01/26 07:31:04;;;;;;;18.52;10.00;;;0.00;99.90;;;;;;5074744;28;20613;-72
2022/01/26 07:36:54;;;;;;;12.43;6.00;;;0.00;99.90;;;;;;5073222;28;20039;-71
2022/01/26 07:39:31;;;;;;;13.52;7.43;;;0.00;99.90;;;;;;5073224;28;20035;-71
2022/01/26 07:41:58;;;;;;;14.70;8.23;;;0.00;99.90;;;;;;5080411;28;20032;-72
2022/01/26 07:44:24;;;;;;;13.45;7.72;;;0.10;99.90;;;;;;5069728;28;20020;-71
2022/01/26 07:46:50;;;;;;;17.02;9.23;;;0.10;99.90;;;;;;5076549;28;20690;-70
2022/01/26 07:49:15;;;;;;;17.20;9.68;;;0.10;99.90;;;;;;5073810;28;20657;-70
2022/01/26 07:51:41;;;;;;;12.77;7.65;;;0.20;99.90;;;;;;5076756;28;20139;-72
2022/01/26 07:54:07;;;;;;;17.20;8.75;;;0.10;99.90;;;;;;5077252;28;20034;-71
2022/01/26 07:56:32;;;;;;;16.40;8.23;;;0.10;99.90;;;;;;5074993;28;20024;-70
2022/01/26 07:58:58;;;;;;;15.93;8.43;;;0.10;99.90;;;;;;5078604;28;20028;-71
2022/01/26 08:01:24;;;;;;;17.98;8.80;;;0.10;99.90;;;;;;5082443;28;20068;-71
2022/01/26 08:03:50;;;;;;;15.65;9.02;;;0.10;99.90;;;;;;5071726;28;20033;-71
2022/01/26 08:06:18;;;;;;;16.08;10.00;;;0.00;99.90;;;;;;5081268;28;20020;-70
2022/01/26 08:08:43;;;;;;;13.50;7.68;;;0.10;99.90;;;;;;5078563;28;20085;-71
2022/01/26 08:11:10;;;;;;;19.15;7.90;;;0.10;99.90;;;;;;5081567;28;20545;-71
2022/01/26 08:13:35;;;;;;;17.85;8.25;;;0.10;99.90;;;;;;5082385;28;20093;-71
2022/01/26 08:16:01;;;;;;;15.30;8.88;;;0.10;99.90;;;;;;5071695;28;20393;-71
2022/01/26 08:18:27;;;;;;;17.02;7.97;;;0.10;99.90;;;;;;5080053;28;20024;-70
2022/01/26 08:20:53;;;;;;;12.77;6.35;;;0.20;99.90;;;;;;5080121;28;20027;-71
2022/01/26 08:23:21;;;;;;;15.70;6.88;;;0.30;99.90;;;;;;5073315;28;20028;-71
2022/01/26 08:25:50;;;;;;;12.13;5.95;;;0.60;99.90;;;;;;5073631;28;20032;-71
2022/01/26 08:28:23;;;;;;;11.85;6.95;;;0.50;99.90;;;;;;5076772;28;20362;-71
2022/01/26 08:30:48;;;;;;;18.90;9.25;;;0.40;99.90;;;;;;5078759;28;20143;-70
2022/01/26 08:33:14;;;;;;;13.82;7.78;;;0.50;99.90;;;;;;5069638;28;20115;-70
2022/01/26 08:35:41;;;;;;;16.10;9.13;;;0.50;99.90;;;;;;5079715;28;20027;-71
2022/01/26 08:38:07;;;;;;;16.30;8.13;;;0.40;99.90;;;;;;5081162;28;20081;-71
2022/01/26 08:40:33;;;;;;;16.90;9.00;;;0.40;99.90;;;;;;5079906;28;20028;-70
2022/01/26 08:43:00;;;;;;;20.40;8.23;;;0.60;99.90;;;;;;5080766;28;20032;-70
2022/01/26 12:43:05;;;;;;;10.73;6.40;;;6.60;92.90;;;;;;4822826;29;20061;-75
2022/01/26 12:45:27;;;;;;;17.17;8.55;;;6.50;91.20;;;;;;4823237;29;20144;-74
2022/01/26 12:47:55;;;;;;;16.23;8.45;;;6.30;91.40;;;;;;4823231;29;20053;-74
2022/01/26 12:50:23;;;;;;;18.83;8.15;;;6.40;91.40;;;;;;4827819;29;20120;-75
2022/01/26 12:52:54;;;;;;;14.35;7.78;;;6.40;91.30;;;;;;4832235;29;20077;-75
2022/01/26 12:55:26;;;;;;;17.73;8.80;;;6.50;91.20;;;;;;4830289;29;20178;-74
2022/01/26 12:57:54;;;;;;;28.75;17.88;;;6.50;91.00;;;;;;4823137;29;20364;-74
2022/01/26 13:07:57;;;;;;;12.57;7.80;;;6.80;90.50;;;;;;3870734;29;20720;-72
2022/01/26 13:10:23;;;;;;;11.25;5.78;;;6.80;90.70;;;;;;4852635;29;20048;-72
2022/01/26 13:16:16;;;;;;;12.23;6.82;;;6.80;90.40;;;;;;4851570;29;20117;-72
2022/01/26 13:36:47;;;;;;;11.48;7.30;;;7.10;90.40;;;;;;4826800;29;20082;-73
2022/01/26 13:42:55;;;;;;;12.65;8.27;;;7.10;89.60;;;;;;4853528;29;20040;-70
2022/01/26 14:00:14;;;;;;;17.80;10.48;;;7.30;90.40;;;;;;4844130;29;20045;-71
2022/01/26 14:02:40;;;;;;;17.88;11.02;;;7.30;90.40;;;;;;4848212;29;20037;-73
2022/01/26 14:05:07;;;;;;;21.08;11.77;;;7.20;90.50;;;;;;4835059;29;20407;-72
2022/01/26 14:07:33;;;;;;;18.48;10.98;;;7.30;90.60;;;;;;4849610;29;20029;-72
2022/01/26 14:09:58;;;;;;;16.38;10.27;;;7.50;90.60;;;;;;4835994;29;20057;-72
2022/01/26 14:12:29;;;;;;;21.10;12.70;;;7.60;90.40;;;;;;4852726;29;20042;-73
2022/01/26 14:14:57;;;;;;;20.92;12.13;;;7.50;90.10;;;;;;4844039;29;20149;-72
2022/01/26 14:17:35;;;;;;;26.42;13.77;;;7.40;90.70;;;;;;4853888;29;20030;-73
2022/01/26 14:27:45;;;;;;;17.95;12.00;;;7.60;90.70;;;;;;5034574;28;20060;-72
2022/01/26 14:51:18;;;;;;;27.30;16.07;;;7.40;91.00;;;;;;5041195;28;20271;-74
2022/01/26 15:50:10;;;;;;;39.75;20.98;;;5.80;93.60;;;;;;5023116;28;20486;-71
2022/01/26 15:58:13;;;;;;;32.60;16.90;;;5.80;93.60;;;;;;5025755;28;20103;-71
2022/01/26 16:06:17;;;;;;;34.83;18.57;;;5.50;93.60;;;;;;5028293;28;20080;-71
2022/01/26 16:17:38;;;;;;;36.40;20.17;;;5.30;94.30;;;;;;5030485;28;20044;-71
2022/01/26 16:37:41;;;;;;;38.10;21.73;;;5.00;94.90;;;;;;5020823;28;20471;-73
2022/01/26 16:39:00;;;;;;;46.63;23.80;;;4.90;95.40;;;;;;5006906;28;20380;-71
2022/01/26 17:46:43;;;;;;;65.03;28.63;;;3.50;99.90;;;;;;5025443;28;20608;-71
2022/01/26 18:33:28;;;;;;;48.28;25.73;;;3.30;99.50;;;;;;5022101;28;20088;-71
2022/01/26 18:51:41;;;;;;;47.53;24.15;;;3.20;99.90;;;;;;5015779;28;20517;-74
2022/01/26 18:54:08;;;;;;;48.10;24.88;;;3.20;99.90;;;;;;5017332;28;20116;-73
2022/01/26 18:56:35;;;;;;;44.67;23.20;;;3.30;99.90;;;;;;5018014;28;20033;-72
2022/01/26 18:59:01;;;;;;;62.05;30.15;;;3.20;99.90;;;;;;5016348;28;20037;-72
2022/01/26 19:01:27;;;;;;;58.35;27.75;;;2.90;99.90;;;;;;5019603;28;20056;-71
2022/01/26 19:03:53;;;;;;;58.60;29.90;;;2.70;99.90;;;;;;5017032;28;20045;-70
2022/01/26 19:06:19;;;;;;;66.85;30.88;;;2.50;99.90;;;;;;5016100;28;20026;-71
2022/01/26 19:08:45;;;;;;;68.90;34.63;;;2.40;99.90;;;;;;5015130;28;20403;-71
2022/01/26 19:11:11;;;;;;;70.00;31.67;;;2.30;99.90;;;;;;5020338;28;20022;-71
2022/01/26 19:13:38;;;;;;;67.22;33.53;;;2.00;99.90;;;;;;5022733;28;20029;-72
2022/01/26 19:16:12;;;;;;;61.38;33.60;;;2.00;99.90;;;;;;5020275;28;20029;-71
2022/01/26 19:19:08;;;;;;;64.85;30.83;;;1.90;99.90;;;;;;5019478;28;20049;-71
2022/01/26 19:27:00;;;;;;;51.97;24.50;;;2.50;99.90;;;;;;5024316;28;20116;-71
2022/01/26 19:43:34;;;;;;;53.15;24.27;;;2.90;99.90;;;;;;4984033;28;20057;-71
2022/01/26 19:53:10;;;;;;;;;;;2.40;99.90;;;;;;5025177;28;20033;-71
2022/01/26 19:55:36;;;;;;;63.03;29.83;;;2.20;99.90;;;;;;5018156;28;19912;-71
2022/01/26 19:58:04;;;;;;;56.47;27.52;;;2.10;99.90;;;;;;5018968;28;20033;-71
2022/01/26 20:00:30;;;;;;;45.35;24.17;;;2.00;99.90;;;;;;5021350;28;20106;-71
2022/01/26 20:02:57;;;;;;;49.17;24.17;;;1.90;99.90;;;;;;5024491;28;20112;-71
2022/01/26 20:05:23;;;;;;;41.55;21.88;;;1.80;99.90;;;;;;5020436;28;20021;-71
2022/01/26 20:07:53;;;;;;;44.47;22.42;;;1.90;99.90;;;;;;5017431;28;20048;-71
2022/01/26 20:10:29;;;;;;;42.75;21.92;;;2.00;99.90;;;;;;5024209;28;20518;-71
2022/01/26 20:13:06;;;;;;;49.08;22.27;;;2.10;99.90;;;;;;5025916;28;20025;-71
2022/01/26 20:15:32;;;;;;;63.72;29.08;;;2.30;99.90;;;;;;5023270;28;20606;-71
2022/01/26 20:17:58;;;;;;;43.83;22.17;;;2.40;99.90;;;;;;5022050;28;20056;-72
2022/01/26 20:20:25;;;;;;;52.53;24.08;;;2.40;99.90;;;;;;5025366;28;20040;-71
2022/01/26 20:22:52;;;;;;;52.08;26.30;;;2.20;99.90;;;;;;5023545;28;20041;-71
2022/01/26 20:25:18;;;;;;;54.60;25.80;;;2.00;99.90;;;;;;5023871;28;20052;-71
2022/01/26 20:27:45;;;;;;;46.70;22.50;;;2.00;99.90;;;;;;5022545;28;20075;-71
2022/01/26 20:30:21;;;;;;;45.25;23.08;;;2.00;99.90;;;;;;5024206;28;20065;-71
2022/01/26 20:32:48;;;;;;;41.55;21.85;;;1.90;99.90;;;;;;5022960;28;20021;-71
2022/01/26 20:35:19;;;;;;;46.35;24.50;;;2.00;99.90;;;;;;5023506;28;20044;-71
2022/01/26 20:37:45;;;;;;;37.92;19.88;;;1.90;99.90;;;;;;5021583;28;20036;-71
2022/01/26 20:40:12;;;;;;;37.55;21.13;;;1.80;99.90;;;;;;5016687;28;20034;-72
2022/01/26 20:42:38;;;;;;;51.33;24.42;;;1.90;99.90;;;;;;5018866;28;20121;-71
2022/01/26 20:45:06;;;;;;;40.80;20.98;;;1.90;99.90;;;;;;5021991;28;20481;-71
2022/01/26 20:47:34;;;;;;;44.08;21.63;;;2.00;99.90;;;;;;5023303;28;20029;-71
2022/01/26 20:50:00;;;;;;;43.60;22.08;;;2.00;99.90;;;;;;5024548;28;20040;-71
2022/01/26 20:52:25;;;;;;;41.05;18.75;;;1.90;99.90;;;;;;5021677;28;20586;-71
2022/01/26 20:54:51;;;;;;;34.53;17.95;;;2.00;99.90;;;;;;5017466;28;20037;-71
2022/01/26 20:57:17;;;;;;;44.58;22.40;;;1.80;99.90;;;;;;5017329;28;20041;-71
2022/01/26 20:59:42;;;;;;;55.75;26.33;;;1.70;99.90;;;;;;5013838;28;20112;-73
2022/01/26 21:02:08;;;;;;;52.13;25.45;;;1.70;99.90;;;;;;5022335;28;20029;-71
2022/01/26 21:04:34;;;;;;;44.22;21.25;;;1.50;99.90;;;;;;5014716;28;20033;-71
2022/01/26 21:07:00;;;;;;;41.22;21.65;;;1.50;99.90;;;;;;5016995;28;20414;-71
2022/01/26 21:09:26;;;;;;;38.83;19.27;;;1.50;99.90;;;;;;5018132;28;20033;-71
2022/01/26 21:11:52;;;;;;;43.83;20.45;;;1.50;99.90;;;;;;5015749;28;20029;-71
2022/01/26 21:14:17;;;;;;;52.50;22.60;;;1.60;99.90;;;;;;5017314;28;20121;-71
2022/01/26 21:16:43;;;;;;;58.90;28.98;;;1.80;99.90;;;;;;5016520;28;20485;-71
2022/01/26 21:19:10;;;;;;;53.88;26.08;;;1.90;99.90;;;;;;5019176;28;20025;-71
2022/01/26 21:21:35;;;;;;;43.53;19.02;;;1.90;99.90;;;;;;5020932;28;20057;-71
2022/01/26 21:24:01;;;;;;;37.47;18.50;;;1.80;99.90;;;;;;5022713;28;20138;-73
2022/01/26 21:26:27;;;;;;;39.78;20.65;;;1.80;99.90;;;;;;5024409;28;20068;-72
2022/01/26 21:28:54;;;;;;;39.50;21.77;;;2.00;99.90;;;;;;5022414;28;20037;-71
2022/01/26 21:31:20;;;;;;;46.72;22.48;;;2.00;99.90;;;;;;5023169;28;20029;-71
2022/01/26 21:33:46;;;;;;;53.13;24.88;;;1.90;99.90;;;;;;5022431;28;20514;-71
2022/01/26 21:36:14;;;;;;;53.58;25.98;;;1.80;99.90;;;;;;5022632;28;20038;-71
2022/01/26 21:38:41;;;;;;;38.47;20.90;;;1.90;99.90;;;;;;5017477;28;20407;-72
2022/01/26 21:41:07;;;;;;;40.80;20.42;;;1.60;99.90;;;;;;5022932;28;20029;-72
2022/01/26 21:43:33;;;;;;;38.83;19.52;;;1.60;99.90;;;;;;5020670;28;20037;-71
2022/01/26 21:45:59;;;;;;;48.17;25.38;;;1.60;99.90;;;;;;5018930;28;20044;-73
2022/01/26 21:48:25;;;;;;;47.10;24.20;;;1.80;99.90;;;;;;5016995;28;20025;-71
2022/01/26 21:50:51;;;;;;;39.05;20.13;;;1.70;99.90;;;;;;5019566;28;20094;-71
2022/01/26 21:53:19;;;;;;;46.95;23.45;;;1.60;99.90;;;;;;5020523;28;20029;-71
2022/01/26 21:55:46;;;;;;;33.65;16.70;;;1.60;99.90;;;;;;5016460;28;20113;-73
2022/01/26 21:58:12;;;;;;;21.05;11.65;;;1.60;99.90;;;;;;5020347;28;20060;-71
2022/01/26 22:00:38;;;;;;;28.10;14.10;;;1.70;99.90;;;;;;5023809;28;20037;-72
2022/01/26 22:03:06;;;;;;;42.05;19.83;;;1.70;99.90;;;;;;5021745;28;20075;-71
2022/01/26 22:05:36;;;;;;;42.05;22.38;;;1.70;99.90;;;;;;5023429;28;20025;-71
2022/01/26 22:08:03;;;;;;;34.28;16.13;;;1.60;99.90;;;;;;5020916;28;20529;-72
2022/01/26 22:10:29;;;;;;;42.60;21.77;;;1.50;99.90;;;;;;5016384;28;20041;-72
2022/01/26 22:12:55;;;;;;;46.78;22.38;;;1.50;99.90;;;;;;5021391;28;20036;-72
2022/01/26 22:15:21;;;;;;;42.50;21.67;;;1.50;99.90;;;;;;5022919;28;20045;-72
2022/01/26 22:17:47;;;;;;;39.85;21.48;;;1.50;99.90;;;;;;5017282;28;20030;-71
2022/01/26 22:20:13;;;;;;;39.90;18.92;;;1.40;99.90;;;;;;5013102;28;20584;-72
2022/01/26 22:22:40;;;;;;;41.72;21.13;;;1.30;99.90;;;;;;5021877;28;20033;-72
2022/01/26 22:25:06;;;;;;;43.80;22.92;;;1.40;99.90;;;;;;5020389;28;20034;-72
2022/01/26 22:27:37;;;;;;;44.10;20.40;;;1.30;99.90;;;;;;5018640;28;20048;-72
2022/01/26 22:30:06;;;;;;;37.20;19.30;;;1.30;99.90;;;;;;5021228;28;20040;-72
2022/01/26 22:32:32;;;;;;;38.25;19.20;;;1.40;99.90;;;;;;5021123;28;20025;-72
2022/01/26 22:34:58;;;;;;;35.53;17.38;;;1.40;99.90;;;;;;5020491;28;20052;-72
2022/01/26 22:37:25;;;;;;;36.47;18.73;;;1.40;99.90;;;;;;5023039;28;20434;-73
2022/01/26 22:39:53;;;;;;;39.28;19.23;;;1.30;99.90;;;;;;5022680;28;20092;-72
2022/01/26 22:42:19;;;;;;;45.42;21.05;;;1.20;99.90;;;;;;5022609;28;20480;-72
2022/01/26 22:44:45;;;;;;;44.25;22.27;;;1.20;99.90;;;;;;5024098;28;20069;-73
2022/01/26 22:47:11;;;;;;;43.53;22.58;;;1.00;99.90;;;;;;5025952;28;20069;-72
2022/01/26 22:49:37;;;;;;;52.50;25.17;;;1.00;99.90;;;;;;5025753;28;20059;-72
2022/01/26 22:52:03;;;;;;;45.55;22.67;;;1.00;99.90;;;;;;5026252;28;20099;-72
2022/01/26 22:54:29;;;;;;;41.90;21.67;;;0.80;99.90;;;;;;5019796;28;20033;-72
2022/01/26 22:56:55;;;;;;;35.10;17.95;;;0.90;99.90;;;;;;5027220;28;20040;-73
2022/01/26 22:59:21;;;;;;;32.20;16.67;;;1.10;99.90;;;;;;5023594;28;20086;-72
2022/01/26 23:02:34;;;;;;;39.22;19.95;;;1.10;99.90;;;;;;5026907;28;20037;-72
2022/01/26 23:04:42;;;;;;;41.65;21.80;;;1.20;99.90;;;;;;5022172;28;20553;-71
2022/01/26 23:07:08;;;;;;;49.15;24.55;;;1.30;99.90;;;;;;5025848;28;20033;-72
2022/01/26 23:09:34;;;;;;;52.33;26.38;;;1.40;99.90;;;;;;5024846;28;20033;-72
2022/01/26 23:11:59;;;;;;;41.35;20.17;;;1.50;99.90;;;;;;5028658;28;20026;-72
2022/01/26 23:14:32;;;;;;;43.85;22.73;;;1.40;99.90;;;;;;5028742;28;20029;-72
2022/01/26 23:16:59;;;;;;;53.50;24.40;;;1.50;99.90;;;;;;5026415;28;20541;-72
2022/01/26 23:19:24;;;;;;;36.65;19.73;;;1.40;99.90;;;;;;5026889;28;20471;-72
2022/01/26 23:21:50;;;;;;;36.08;17.30;;;1.50;99.90;;;;;;5028576;28;20037;-72
2022/01/26 23:24:16;;;;;;;36.97;19.52;;;1.50;99.90;;;;;;5026081;28;20518;-73
2022/01/26 23:26:47;;;;;;;35.80;19.20;;;1.30;99.90;;;;;;5028160;28;20044;-72
2022/01/26 23:29:27;;;;;;;43.00;20.88;;;1.10;99.90;;;;;;5027411;28;20036;-72
2022/01/26 23:59:29;;;;;;;51.45;23.52;;;0.60;99.90;;;;;;5024602;28;20071;-72
